Time;durP1;ratioP1;P1;durP2;ratioP2;P2;SDS_P1;SDS_P2;PMS_P1;PMS_P2;Temp;Humidity;BMP_temperature;BMP_pressure;BME280_temperature;BME280_humidity;BME280_pressure;Samples;Min_cycle;Max_cycle;Signal;HPM_P1;HPM_P2
2021/10/09 00:02:20;;;;;;;;;;;;;;;15.17;28.75;101519.81;4996885;28;19921;-65
2021/10/09 00:04:46;;;;;;;;;;;;;;;15.19;28.83;101522.34;5013274;28;20001;-65
2021/10/09 00:07:11;;;;;;;;;;;;;;;15.15;28.90;101520.94;5012858;28;19929;-65
2021/10/09 00:09:37;;;;;;;;;;;;;;;15.04;29.08;101516.56;5013087;28;19928;-65
2021/10/09 00:12:03;;;;;;;;;;;;;;;15.11;28.90;101515.00;4980199;28;19948;-65
2021/10/09 00:14:28;;;;;;;;;;;;;;;15.09;28.93;101508.97;4996370;28;19921;-64
2021/10/09 00:16:54;;;;;;;;;;;;;;;15.12;28.86;101513.19;5014071;28;20394;-66
2021/10/09 00:19:20;;;;;;;;;;;;;;;15.04;28.92;101511.22;5013011;28;19921;-69
2021/10/09 00:21:46;;;;;;;;;;;;;;;15.06;28.92;101511.94;5013028;28;20012;-65
2021/10/09 00:24:12;;;;;;;;;;;;;;;15.10;28.71;101517.81;4996103;28;19921;-66
2021/10/09 00:26:38;;;;;;;;;;;;;;;15.11;28.70;101514.19;5012739;28;20313;-65
2021/10/09 00:29:04;;;;;;;;;;;;;;;15.06;28.73;101513.75;5012428;28;20011;-66
2021/10/09 00:31:29;;;;;;;;;;;;;;;15.07;28.67;101513.63;5012339;28;19960;-65
2021/10/09 00:33:55;;;;;;;;;;;;;;;15.04;28.66;101502.34;5012120;28;19999;-65
2021/10/09 00:36:20;;;;;;;;;;;;;;;15.00;28.95;101503.63;5013684;28;20448;-68
2021/10/09 00:38:46;;;;;;;;;;;;;;;14.96;28.88;101505.72;5014071;28;19921;-66
2021/10/09 00:41:11;;;;;;;;;;;;;;;15.00;28.86;101506.28;4995847;28;19960;-66
2021/10/09 00:43:37;;;;;;;;;;;;;;;14.90;28.99;101500.06;5012306;28;20387;-64
2021/10/09 00:46:03;;;;;;;;;;;;;;;14.86;29.09;101504.88;4996073;28;20305;-65
2021/10/09 00:48:30;;;;;;;;;;;;;;;14.92;29.07;101503.47;5013369;28;20023;-65
2021/10/09 00:50:56;;;;;;;;;;;;;;;14.98;28.92;101503.75;4995769;28;19944;-64
2021/10/09 00:53:21;;;;;;;;;;;;;;;14.97;28.75;101491.38;5013189;28;19922;-68
2021/10/09 00:55:48;;;;;;;;;;;;;;;14.98;28.86;101494.88;4996185;28;19967;-66
2021/10/09 00:58:14;;;;;;;;;;;;;;;14.98;28.77;101498.41;5012134;28;19921;-66
2021/10/09 01:00:41;;;;;;;;;;;;;;;15.00;28.71;101491.09;5013240;28;20350;-66
2021/10/09 01:03:07;;;;;;;;;;;;;;;15.00;28.67;101496.44;4995384;28;19921;-67
2021/10/09 01:05:32;;;;;;;;;;;;;;;15.01;28.62;101494.59;5013273;28;19925;-66
2021/10/09 01:07:58;;;;;;;;;;;;;;;15.00;28.59;101490.25;5011723;28;19927;-65
2021/10/09 01:10:24;;;;;;;;;;;;;;;14.97;28.64;101493.19;4995300;28;19925;-67
2021/10/09 01:12:49;;;;;;;;;;;;;;;14.91;28.76;101485.75;4996031;28;19928;-65
2021/10/09 01:15:16;;;;;;;;;;;;;;;14.86;28.83;101488.84;4995335;28;19946;-66
2021/10/09 01:17:42;;;;;;;;;;;;;;;14.88;28.84;101489.53;5011666;28;19987;-66
2021/10/09 01:20:11;;;;;;;;;;;;;;;14.89;28.78;101482.34;4995263;28;19924;-67
2021/10/09 01:22:37;;;;;;;;;;;;;;;14.90;28.75;101487.56;4995169;28;19921;-66
2021/10/09 01:25:04;;;;;;;;;;;;;;;14.88;28.83;101486.84;5011608;28;20379;-66
2021/10/09 01:27:30;;;;;;;;;;;;;;;14.74;29.08;101481.09;5011476;28;20039;-65
2021/10/09 01:29:56;;;;;;;;;;;;;;;14.64;29.41;101481.06;4995076;28;19921;-66
2021/10/09 01:32:21;;;;;;;;;;;;;;;14.75;29.25;101474.75;5011782;28;19975;-65
2021/10/09 01:34:47;;;;;;;;;;;;;;;14.76;29.34;101481.81;4995054;28;19921;-67
2021/10/09 01:37:17;;;;;;;;;;;;;;;14.56;29.76;101483.59;4995514;28;20063;-65
2021/10/09 01:39:43;;;;;;;;;;;;;;;14.57;29.70;101484.44;4995094;28;19921;-65
2021/10/09 01:42:10;;;;;;;;;;;;;;;14.52;29.95;101478.66;5011150;28;19926;-66
2021/10/09 01:44:36;;;;;;;;;;;;;;;14.46;30.02;101480.06;4994979;28;19928;-66
2021/10/09 01:47:02;;;;;;;;;;;;;;;14.43;29.97;101479.50;4994852;28;19922;-66
2021/10/09 01:49:32;;;;;;;;;;;;;;;14.54;29.83;101476.69;5011101;28;19925;-65
2021/10/09 01:52:03;;;;;;;;;;;;;;;14.55;29.73;101475.69;5011036;28;19925;-66
2021/10/09 01:54:29;;;;;;;;;;;;;;;14.53;29.89;101477.69;4994748;28;20339;-66
2021/10/09 01:56:54;;;;;;;;;;;;;;;14.43;29.68;101450.09;5011385;28;20008;-67
2021/10/09 01:59:21;;;;;;;;;;;;;;;14.53;29.62;101483.03;4994879;28;19925;-66
2021/10/09 02:01:53;;;;;;;;;;;;;;;14.49;29.59;101478.94;5010727;28;19960;-65
2021/10/09 02:04:23;;;;;;;;;;;;;;;14.50;29.60;101480.66;5010707;28;19921;-65
2021/10/09 02:06:49;;;;;;;;;;;;;;;14.43;29.69;101483.03;4994993;28;19960;-65
2021/10/09 02:09:17;;;;;;;;;;;;;;;14.33;29.89;101474.13;5010461;28;19955;-65
2021/10/09 02:11:47;;;;;;;;;;;;;;;14.33;29.67;101473.28;4994955;28;20012;-65
2021/10/09 02:14:35;;;;;;;;;;;;;;;14.31;29.70;101475.25;5010782;28;20027;-67
2021/10/09 02:27:10;;;;;;;;;;;;;;;14.30;29.86;101469.06;5010322;28;20310;-65
2021/10/09 02:29:37;;;;;;;;;;;;;;;14.30;29.83;101469.06;5010461;28;20387;-66
2021/10/09 02:32:03;;;;;;;;;;;;;;;14.39;29.43;101468.22;5011816;28;19933;-65
2021/10/09 02:34:30;;;;;;;;;;;;;;;14.32;29.79;101471.59;5010343;28;19917;-65
2021/10/09 02:36:55;;;;;;;;;;;;;;;14.15;30.06;101461.53;4977851;28;20020;-65
2021/10/09 02:39:23;;;;;;;;;;;;;;;14.26;29.81;101461.44;5010199;28;19979;-65
2021/10/09 02:41:52;;;;;;;;;;;;;;;14.32;29.81;101460.88;4978365;28;19925;-65
2021/10/09 02:44:19;;;;;;;;;;;;;;;14.34;29.86;101467.81;5010015;28;19917;-66
2021/10/09 02:46:45;;;;;;;;;;;;;;;14.28;29.96;101464.84;5010015;28;19921;-65
2021/10/09 02:49:10;;;;;;;;;;;;;;;14.37;29.61;101461.31;5009866;28;19929;-67
2021/10/09 02:51:36;;;;;;;;;;;;;;;14.33;29.35;101463.44;5010347;28;19929;-66
2021/10/09 02:54:01;;;;;;;;;;;;;;;14.32;29.43;101460.88;5010173;28;19928;-65
2021/10/09 02:56:27;;;;;;;;;;;;;;;14.28;29.61;101459.50;4993841;28;19928;-65
2021/10/09 02:58:52;;;;;;;;;;;;;;;14.20;29.93;101453.94;5009709;28;19922;-65
2021/10/09 03:01:18;;;;;;;;;;;;;;;14.19;30.18;101452.25;4993481;28;19921;-66
2021/10/09 03:03:44;;;;;;;;;;;;;;;14.03;30.58;101450.09;5010076;28;20433;-66
2021/10/09 03:06:09;;;;;;;;;;;;;;;14.08;30.37;101453.22;4993087;28;20024;-64
2021/10/09 03:08:35;;;;;;;;;;;;;;;14.15;30.03;101450.81;5011081;28;19992;-67
2021/10/09 03:11:01;;;;;;;;;;;;;;;14.14;30.26;101446.47;5010689;28;20013;-64
2021/10/09 03:13:28;;;;;;;;;;;;;;;14.13;30.11;101448.28;5009248;28;19921;-65
2021/10/09 03:15:54;;;;;;;;;;;;;;;14.10;30.12;101440.56;4993442;28;20306;-66
2021/10/09 03:18:19;;;;;;;;;;;;;;;14.10;29.88;101445.06;5009522;28;19966;-65
2021/10/09 03:20:47;;;;;;;;;;;;;;;14.05;29.99;101442.81;4993569;28;20375;-65
2021/10/09 03:23:13;;;;;;;;;;;;;;;13.94;30.30;101442.06;5009330;28;20302;-65
2021/10/09 03:25:39;;;;;;;;;;;;;;;13.94;30.24;101442.91;5010845;28;19933;-66
2021/10/09 03:28:05;;;;;;;;;;;;;;;13.93;30.28;101443.06;4993427;28;19921;-64
2021/10/09 03:30:35;;;;;;;;;;;;;;;13.86;30.28;101437.41;4993268;28;19928;-66
2021/10/09 03:33:00;;;;;;;;;;;;;;;13.80;30.49;101443.28;4993078;28;19925;-69
2021/10/09 03:35:26;;;;;;;;;;;;;;;13.85;30.41;101438.38;4993381;28;19979;-65
2021/10/09 03:37:52;;;;;;;;;;;;;;;13.81;30.53;101438.78;5009397;28;20016;-66
2021/10/09 03:40:22;;;;;;;;;;;;;;;13.70;30.63;101433.53;4993578;28;20474;-65
2021/10/09 03:42:55;;;;;;;;;;;;;;;13.75;30.59;101431.28;4993679;28;19921;-66
2021/10/09 03:50:34;;;;;;;;;;;;;;;13.60;31.21;101441.50;5009559;28;20020;-65
2021/10/09 03:53:02;;;;;;;;;;;;;;;13.45;31.44;101438.31;4980206;28;19925;-68
2021/10/09 03:55:28;;;;;;;;;;;;;;;13.50;31.09;101437.94;4992992;28;19925;-66
2021/10/09 03:57:54;;;;;;;;;;;;;;;13.50;31.27;101435.25;4993059;28;19960;-65
2021/10/09 04:00:20;;;;;;;;;;;;;;;13.46;31.05;101431.19;5009443;28;19921;-65
2021/10/09 04:02:51;;;;;;;;;;;;;;;13.42;31.15;101441.25;4977392;28;19925;-66
2021/10/09 04:05:17;;;;;;;;;;;;;;;13.21;31.67;101440.44;4992742;28;19929;-65
2021/10/09 04:07:44;;;;;;;;;;;;;;;13.29;31.47;101437.13;4992804;28;19921;-66
2021/10/09 04:10:11;;;;;;;;;;;;;;;13.40;31.17;101434.38;4993042;28;19931;-66
2021/10/09 04:12:39;;;;;;;;;;;;;;;13.24;31.42;101428.66;4993265;28;19921;-65
2021/10/09 04:15:06;;;;;;;;;;;;;;;13.33;31.40;101439.41;4993248;28;19921;-66
2021/10/09 04:17:33;;;;;;;;;;;;;;;13.37;31.36;101437.31;4993130;28;19921;-69
2021/10/09 04:19:59;;;;;;;;;;;;;;;13.29;31.40;101432.63;4993210;28;19925;-66
2021/10/09 04:22:26;;;;;;;;;;;;;;;13.29;31.58;101443.31;4992947;28;19972;-66
2021/10/09 04:24:52;;;;;;;;;;;;;;;13.19;31.85;101441.56;5012278;28;19921;-66
2021/10/09 04:27:18;;;;;;;;;;;;;;;13.35;31.34;101436.59;5012881;28;20063;-66
2021/10/09 04:29:44;;;;;;;;;;;;;;;13.38;31.16;101436.31;4996797;28;19921;-65
2021/10/09 04:32:10;;;;;;;;;;;;;;;13.10;31.41;101442.34;5012417;28;19932;-66
2021/10/09 04:34:36;;;;;;;;;;;;;;;13.22;31.50;101436.78;4996249;28;19921;-66
2021/10/09 04:37:02;;;;;;;;;;;;;;;13.40;31.33;101434.38;5012928;28;19921;-65
2021/10/09 04:39:30;;;;;;;;;;;;;;;13.49;31.09;101446.94;4996333;28;19991;-66
2021/10/09 04:41:56;;;;;;;;;;;;;;;13.51;30.98;101445.81;4996173;28;19960;-66
2021/10/09 04:44:22;;;;;;;;;;;;;;;13.62;30.81;101450.25;4996120;28;20019;-66
2021/10/09 04:46:49;;;;;;;;;;;;;;;13.73;30.54;101452.78;4996331;28;20390;-66
2021/10/09 04:49:16;;;;;;;;;;;;;;;13.82;30.35;101451.16;5012306;28;19928;-66
2021/10/09 04:51:42;;;;;;;;;;;;;;;13.85;30.19;101448.22;4995778;28;19928;-66
2021/10/09 04:54:07;;;;;;;;;;;;;;;13.92;30.13;101454.69;5012021;28;19927;-66
2021/10/09 04:56:33;;;;;;;;;;;;;;;13.94;30.05;101450.94;5012535;28;19992;-66
2021/10/09 04:58:59;;;;;;;;;;;;;;;14.00;29.85;101462.88;4995728;28;20363;-67
2021/10/09 05:01:25;;;;;;;;;;;;;;;14.02;29.75;101452.91;5011985;28;19952;-65
2021/10/09 05:03:52;;;;;;;;;;;;;;;13.98;29.88;101451.47;5011840;28;20546;-65
2021/10/09 05:06:18;;;;;;;;;;;;;;;14.01;29.85;101452.06;4995054;28;19980;-66
2021/10/09 05:08:44;;;;;;;;;;;;;;;14.02;29.79;101463.59;5011534;28;19944;-66
2021/10/09 05:11:10;;;;;;;;;;;;;;;14.07;29.76;101456.03;5012995;28;20387;-66
2021/10/09 05:13:35;;;;;;;;;;;;;;;14.10;29.70;101458.44;4995661;28;19983;-67
2021/10/09 05:16:01;;;;;;;;;;;;;;;14.19;29.61;101455.75;5012008;28;19948;-66
2021/10/09 05:18:27;;;;;;;;;;;;;;;14.26;29.50;101456.94;4995319;28;19940;-66
2021/10/09 05:20:53;;;;;;;;;;;;;;;14.34;29.15;101454.44;4995540;28;19921;-66
2021/10/09 05:23:22;;;;;;;;;;;;;;;14.39;29.27;101457.53;4995822;28;19921;-65
2021/10/09 05:25:52;;;;;;;;;;;;;;;14.40;29.32;101455.72;4996117;28;19967;-65
2021/10/09 05:31:08;;;;;;;;;;;;;;;14.49;29.20;101461.06;4998172;28;20311;-65
2021/10/09 05:33:37;;;;;;;;;;;;;;;14.50;28.99;101449.38;5011781;28;20330;-66
2021/10/09 05:36:03;;;;;;;;;;;;;;;14.62;29.05;101455.47;5011081;28;20023;-66
2021/10/09 05:38:28;;;;;;;;;;;;;;;14.70;28.83;101460.94;5011648;28;19922;-65
2021/10/09 05:40:55;;;;;;;;;;;;;;;14.71;28.90;101454.63;4995239;28;19921;-65
2021/10/09 05:43:24;;;;;;;;;;;;;;;14.75;29.02;101459.53;5011358;28;19979;-66
2021/10/09 05:45:50;;;;;;;;;;;;;;;14.79;28.95;101460.94;4995176;28;20326;-66
2021/10/09 05:48:16;;;;;;;;;;;;;;;14.88;28.95;101467.28;5011016;28;19921;-66
2021/10/09 06:59:48;;;;;;;;;;;;;;;19.84;23.66;101465.75;4996296;28;19971;-66
2021/10/09 07:02:14;;;;;;;;;;;;;;;21.30;22.01;101457.47;4993208;28;20047;-67
2021/10/09 07:04:40;;;;;;;;;;;;;;;24.42;19.14;101461.72;5010408;28;20040;-66
2021/10/09 07:07:08;;;;;;;;;;;;;;;28.05;15.27;101466.31;4977206;28;19921;-66
2021/10/09 07:09:46;;;;;;;;;;;;;;;31.81;12.42;101464.75;4993243;28;19928;-67
2021/10/09 07:12:15;;;;;;;;;;;;;;;34.48;10.34;101468.03;5009776;28;19925;-69
2021/10/09 07:14:41;;;;;;;;;;;;;;;36.94;8.43;101458.25;4993491;28;20293;-67
2021/10/09 07:17:07;;;;;;;;;;;;;;;38.91;7.49;101456.84;4993027;28;19921;-67
2021/10/09 07:19:32;;;;;;;;;;;;;;;40.59;6.27;101447.50;5009703;28;19947;-68
2021/10/09 07:21:59;;;;;;;;;;;;;;;42.19;5.40;101442.47;4993436;28;19921;-66
2021/10/09 07:24:25;;;;;;;;;;;;;;;43.44;4.90;101450.72;4993444;28;20346;-68
2021/10/09 07:26:53;;;;;;;;;;;;;;;44.62;4.41;101446.50;5009408;28;19921;-68
2021/10/09 07:29:19;;;;;;;;;;;;;;;45.43;3.72;101451.53;4993061;28;20295;-67
2021/10/09 07:31:46;;;;;;;;;;;;;;;46.37;3.43;101453.13;4993668;28;19922;-69
2021/10/09 07:34:12;;;;;;;;;;;;;;;46.96;3.29;101448.53;4977442;28;19928;-70
2021/10/09 07:36:37;;;;;;;;;;;;;;;47.05;2.77;101447.19;5009482;28;19921;-70
2021/10/09 07:39:03;;;;;;;;;;;;;;;47.53;2.84;101446.91;4993191;28;20372;-69
2021/10/09 07:41:28;;;;;;;;;;;;;;;48.04;2.47;101435.75;4993342;28;20028;-69
2021/10/09 07:43:54;;;;;;;;;;;;;;;48.66;2.23;101425.13;5010721;28;20024;-68
2021/10/09 07:46:19;;;;;;;;;;;;;;;49.29;1.60;101424.78;5009389;28;19928;-70
2021/10/09 07:48:45;;;;;;;;;;;;;;;49.55;1.53;101417.19;5009395;28;19922;-72
2021/10/09 07:51:10;;;;;;;;;;;;;;;49.78;1.53;101415.16;5009924;28;19943;-69
2021/10/09 07:53:36;;;;;;;;;;;;;;;50.03;0.89;101415.59;5009076;28;20441;-69
2021/10/09 07:56:02;;;;;;;;;;;;;;;50.17;0.66;101408.13;4976635;28;19967;-68
2021/10/09 07:58:27;;;;;;;;;;;;;;;50.07;0.84;101407.97;4993780;28;19939;-69
2021/10/09 08:00:53;;;;;;;;;;;;;;;50.49;0.47;101408.56;4996886;28;19921;-68
2021/10/09 08:03:23;;;;;;;;;;;;;;;50.84;0.60;101396.91;5014071;28;19974;-68
2021/10/09 08:05:51;;;;;;;;;;;;;;;51.23;0.28;101392.44;4981275;28;19940;-69
2021/10/09 08:08:16;;;;;;;;;;;;;;;51.11;0.28;101401.25;5012985;28;20326;-69
2021/10/09 08:10:42;;;;;;;;;;;;;;;51.10;0.23;101408.13;5014578;28;19965;-69
2021/10/09 08:13:07;;;;;;;;;;;;;;;50.53;0.33;101398.91;5012864;28;20290;-70
2021/10/09 08:15:33;;;;;;;;;;;;;;;50.74;0.54;101397.56;4996452;28;19983;-69
2021/10/09 08:17:58;;;;;;;;;;;;;;;50.83;0.03;101400.91;5012823;28;21821;-69
2021/10/09 08:20:24;;;;;;;;;;;;;;;50.80;0.10;101396.84;5013850;28;19928;-68
2021/10/09 08:22:56;;;;;;;;;;;;;;;50.70;0.44;101396.72;5013690;28;19928;-70
2021/10/09 08:25:52;;;;;;;;;;;;;;;50.87;0.00;101401.78;4980974;28;19921;-70
2021/10/09 08:39:17;;;;;;;;;;;;;;;49.93;0.00;101387.94;4987113;28;20374;-69
2021/10/09 08:41:44;;;;;;;;;;;;;;;49.94;0.00;101387.56;4979905;28;19921;-69
2021/10/09 08:44:09;;;;;;;;;;;;;;;49.06;0.00;101388.88;4995714;28;19922;-69
2021/10/09 08:46:35;;;;;;;;;;;;;;;48.54;0.40;101370.84;5012202;28;19980;-69
2021/10/09 08:49:00;;;;;;;;;;;;;;;49.00;0.29;101375.44;4979762;28;19944;-67
2021/10/09 08:51:26;;;;;;;;;;;;;;;49.28;0.56;101373.13;5013091;28;19983;-68
2021/10/09 08:53:52;;;;;;;;;;;;;;;48.74;0.51;101378.94;5013231;28;20462;-68
2021/10/09 08:56:31;;;;;;;;;;;;;;;49.36;0.34;101374.09;5012092;28;19917;-68
2021/10/09 08:59:07;;;;;;;;;;;;;;;49.36;0.30;101377.72;5011532;28;19922;-69
2021/10/09 09:04:21;;;;;;;;;;;;;;;48.54;0.40;101374.47;4995259;28;19979;-70
2021/10/09 09:25:17;;;;;;;;;;;;;;;49.78;0.00;101369.16;5010988;28;19921;-69
2021/10/09 09:26:30;;;;;;;;;;;;;;;50.46;0.00;101359.25;5011456;28;19927;-69
2021/10/09 09:37:14;;;;;;;;;;;;;;;50.90;0.00;101350.88;4995138;28;19932;-68
2021/10/09 09:39:41;;;;;;;;;;;;;;;50.90;0.00;101338.72;5010870;28;19922;-69
2021/10/09 09:42:07;;;;;;;;;;;;;;;51.07;0.00;101340.94;5012390;28;19944;-69
2021/10/09 09:44:51;;;;;;;;;;;;;;;50.02;0.00;101332.78;4995049;28;20418;-69
2021/10/09 09:47:17;;;;;;;;;;;;;;;49.63;0.10;101333.34;4978826;28;19921;-69
2021/10/09 09:49:42;;;;;;;;;;;;;;;49.78;0.02;101338.06;4994545;28;20401;-69
2021/10/09 09:52:08;;;;;;;;;;;;;;;49.94;0.04;101336.69;4978557;28;19928;-68
2021/10/09 09:54:33;;;;;;;;;;;;;;;50.13;0.10;101330.09;5011307;28;19921;-71
2021/10/09 09:57:00;;;;;;;;;;;;;;;49.92;0.00;101333.41;4994889;28;19921;-68
2021/10/09 09:59:28;;;;;;;;;;;;;;;49.93;0.00;101329.38;5010513;28;19921;-69
2021/10/09 10:01:53;;;;;;;;;;;;;;;49.87;0.08;101324.47;5012131;28;19960;-69
2021/10/09 10:04:19;;;;;;;;;;;;;;;50.15;0.00;101331.34;4994868;28;20398;-70
2021/10/09 10:06:45;;;;;;;;;;;;;;;49.56;0.00;101328.44;4994128;28;19921;-69
2021/10/09 10:09:10;;;;;;;;;;;;;;;49.06;0.28;101329.56;4994278;28;19925;-69
2021/10/09 10:11:36;;;;;;;;;;;;;;;48.88;0.00;101327.59;4978010;28;20011;-69
2021/10/09 10:14:01;;;;;;;;;;;;;;;49.03;0.00;101321.03;4978239;28;19968;-69
2021/10/09 10:16:27;;;;;;;;;;;;;;;48.84;0.00;101321.88;4993936;28;20344;-68
2021/10/09 10:18:53;;;;;;;;;;;;;;;48.31;0.27;101311.56;5010745;28;19921;-70
2021/10/09 10:21:27;;;;;;;;;;;;;;;47.67;0.45;101316.94;4978354;28;19947;-70
2021/10/09 10:23:53;;;;;;;;;;;;;;;47.45;0.35;101307.13;5011080;28;19925;-72
2021/10/09 10:26:18;;;;;;;;;;;;;;;47.82;0.38;101298.31;4994633;28;19921;-69
2021/10/09 10:28:44;;;;;;;;;;;;;;;48.34;0.36;101298.69;4993817;28;19921;-69
2021/10/09 10:31:10;;;;;;;;;;;;;;;47.93;0.31;101302.22;5010331;28;20367;-70
2021/10/09 10:33:40;;;;;;;;;;;;;;;47.70;0.28;101301.28;4977891;28;19921;-69
2021/10/09 10:36:07;;;;;;;;;;;;;;;48.17;0.47;101299.94;5010190;28;20052;-69
2021/10/09 10:38:41;;;;;;;;;;;;;;;47.87;0.40;101295.22;4993395;28;19922;-69
2021/10/09 10:41:07;;;;;;;;;;;;;;;47.99;0.53;101292.28;5010068;28;19956;-69
2021/10/09 10:43:35;;;;;;;;;;;;;;;47.59;0.46;101295.41;5010002;28;19962;-69
2021/10/09 10:46:38;;;;;;;;;;;;;;;46.91;0.58;101282.78;5009793;28;20443;-69
2021/10/09 10:49:10;;;;;;;;;;;;;;;46.00;1.07;101276.13;5007397;28;19930;-68
2021/10/09 10:51:50;;;;;;;;;;;;;;;46.59;0.94;101284.72;5011071;28;19944;-68
2021/10/09 10:57:01;;;;;;;;;;;;;;;45.92;0.78;101276.25;5009996;28;19922;-70
2021/10/09 10:59:26;;;;;;;;;;;;;;;45.61;1.13;101271.25;5009570;28;20314;-70
2021/10/09 11:02:10;;;;;;;;;;;;;;;45.84;1.09;101271.63;5009958;28;19979;-69
2021/10/09 11:04:40;;;;;;;;;;;;;;;46.29;0.77;101268.56;5009557;28;19917;-68
2021/10/09 11:07:06;;;;;;;;;;;;;;;45.97;0.98;101265.59;4993049;28;19975;-69
2021/10/09 11:09:33;;;;;;;;;;;;;;;45.25;1.41;101262.03;5010838;28;19956;-70
2021/10/09 11:12:00;;;;;;;;;;;;;;;44.51;1.60;101257.44;5009357;28;19968;-69
2021/10/09 11:14:26;;;;;;;;;;;;;;;43.99;1.76;101267.47;5009837;28;19952;-69
2021/10/09 11:17:04;;;;;;;;;;;;;;;44.13;1.64;101258.78;5009796;28;20350;-68
2021/10/09 11:19:39;;;;;;;;;;;;;;;43.59;1.83;101257.88;5010719;28;19921;-69
2021/10/09 11:22:05;;;;;;;;;;;;;;;43.40;1.70;101249.06;4977329;28;19921;-68
2021/10/09 11:24:39;;;;;;;;;;;;;;;41.93;2.62;101245.28;5009651;28;19939;-68
2021/10/09 11:27:05;;;;;;;;;;;;;;;39.91;3.55;101236.06;4993094;28;19921;-69
2021/10/09 11:29:31;;;;;;;;;;;;;;;37.78;4.16;101240.56;4993020;28;19933;-68
2021/10/09 11:32:00;;;;;;;;;;;;;;;36.78;4.90;101231.50;5009726;28;19921;-68
2021/10/09 11:34:25;;;;;;;;;;;;;;;36.11;5.29;101232.31;4992387;28;19933;-69
2021/10/09 11:36:53;;;;;;;;;;;;;;;35.10;5.86;101240.28;5009199;28;19921;-67
2021/10/09 11:39:21;;;;;;;;;;;;;;;33.76;6.53;101226.19;5009545;28;20012;-67
2021/10/09 11:42:00;;;;;;;;;;;;;;;33.13;7.00;101225.63;5009399;28;20135;-68
2021/10/09 11:44:30;;;;;;;;;;;;;;;32.38;7.42;101224.00;4992777;28;19997;-67
2021/10/09 11:55:16;;;;;;;;;;;;;;;30.63;10.46;101219.91;5008960;28;19925;-67
2021/10/09 11:57:41;;;;;;;;;;;;;;;30.44;9.55;101221.25;5009192;28;19971;-68
2021/10/09 12:00:25;;;;;;;;;;;;;;;30.30;9.73;101219.09;4992923;28;19960;-67
2021/10/09 12:02:51;;;;;;;;;;;;;;;30.02;9.83;101219.09;5008933;28;19921;-67
2021/10/09 12:05:16;;;;;;;;;;;;;;;29.66;10.17;101211.31;5008933;28;19921;-67
2021/10/09 12:07:42;;;;;;;;;;;;;;;28.82;10.49;101203.72;5008727;28;19921;-68
2021/10/09 12:10:19;;;;;;;;;;;;;;;28.70;10.56;101202.91;4992733;28;19921;-67
2021/10/09 12:12:47;;;;;;;;;;;;;;;28.47;10.54;101203.75;4992338;28;19940;-66
2021/10/09 12:15:23;;;;;;;;;;;;;;;27.90;10.78;101199.00;5008718;28;19964;-67
2021/10/09 12:17:48;;;;;;;;;;;;;;;27.54;11.39;101199.06;5009054;28;19971;-68
2021/10/09 12:20:14;;;;;;;;;;;;;;;27.29;12.46;101192.91;5008940;28;19961;-66
2021/10/09 12:22:55;;;;;;;;;;;;;;;26.78;12.19;101181.50;5010013;28;19925;-67
2021/10/09 12:25:22;;;;;;;;;;;;;;;26.28;12.13;101192.44;5010041;28;19921;-66
2021/10/09 12:27:54;;;;;;;;;;;;;;;26.42;12.62;101183.09;5010007;28;19928;-68
2021/10/09 12:30:20;;;;;;;;;;;;;;;26.55;12.60;101192.19;4992605;28;20790;-67
2021/10/09 12:32:46;;;;;;;;;;;;;;;26.54;13.18;101185.09;5009814;28;19957;-66
2021/10/09 12:35:21;;;;;;;;;;;;;;;26.33;12.52;101179.00;4976269;28;20398;-70
2021/10/09 12:38:06;;;;;;;;;;;;;;;26.34;12.72;101183.38;5009074;28;19921;-68
2021/10/09 12:40:38;;;;;;;;;;;;;;;26.05;12.52;101172.31;4992395;28;19960;-76
2021/10/09 12:43:05;;;;;;;;;;;;;;;25.82;12.53;101183.75;5008749;28;19925;-69
2021/10/09 12:45:30;;;;;;;;;;;;;;;25.61;12.54;101184.09;4994953;28;19938;-69
2021/10/09 12:47:56;;;;;;;;;;;;;;;25.40;12.98;101178.97;4995716;28;19921;-71
2021/10/09 12:50:23;;;;;;;;;;;;;;;25.00;13.01;101180.19;5011893;28;19921;-67
2021/10/09 12:52:48;;;;;;;;;;;;;;;25.03;13.03;101174.31;5012009;28;19928;-68
2021/10/09 12:55:14;;;;;;;;;;;;;;;24.95;13.41;101171.81;5031065;28;19917;-67
2021/10/09 12:57:50;;;;;;;;;;;;;;;24.94;13.29;101180.19;5025295;28;21254;-68
2021/10/09 13:00:16;;;;;;;;;;;;;;;24.53;13.18;101172.31;5046504;28;19921;-69
2021/10/09 13:02:41;;;;;;;;;;;;;;;24.23;13.45;101163.75;5046353;28;20321;-69
2021/10/09 13:05:07;;;;;;;;;;;;;;;24.33;13.60;101169.63;5032315;28;19967;-68
2021/10/09 13:07:32;;;;;;;;;;;;;;;24.21;13.58;101163.16;5025250;28;19932;-67
2021/10/09 13:09:58;;;;;;;;;;;;;;;23.84;13.59;101162.88;5049708;28;19928;-70
2021/10/09 13:12:24;;;;;;;;;;;;;;;23.56;14.30;101159.50;5045692;28;19920;-68
2021/10/09 13:14:49;;;;;;;;;;;;;;;23.64;14.52;101162.03;5050501;28;19921;-68
2021/10/09 13:17:15;;;;;;;;;;;;;;;23.78;14.39;101161.00;5033148;28;19923;-69
2021/10/09 13:19:40;;;;;;;;;;;;;;;23.84;14.57;101150.16;5049934;28;20047;-68
2021/10/09 13:22:06;;;;;;;;;;;;;;;23.67;14.90;101153.47;5045297;28;20020;-66
2021/10/09 13:24:31;;;;;;;;;;;;;;;23.69;15.02;101159.53;5031312;28;20251;-67
2021/10/09 13:26:57;;;;;;;;;;;;;;;23.69;15.23;101154.94;5031182;28;20378;-64
2021/10/09 13:29:26;;;;;;;;;;;;;;;23.60;15.63;101150.78;5013185;28;19929;-66
2021/10/09 13:31:51;;;;;;;;;;;;;;;23.60;16.09;101147.22;5031184;28;20472;-66
2021/10/09 13:34:17;;;;;;;;;;;;;;;23.24;15.78;101145.66;5032083;28;19927;-66
2021/10/09 13:36:44;;;;;;;;;;;;;;;23.14;15.85;101144.34;5013599;28;19921;-66
2021/10/09 13:39:10;;;;;;;;;;;;;;;23.21;15.89;101142.47;5048836;28;19972;-67
2021/10/09 13:41:36;;;;;;;;;;;;;;;23.17;16.01;101147.47;5047117;28;19986;-67
2021/10/09 13:44:01;;;;;;;;;;;;;;;23.04;16.09;101147.44;5037289;28;19932;-67
2021/10/09 13:46:28;;;;;;;;;;;;;;;22.95;16.09;101137.81;5024530;28;19959;-66
2021/10/09 13:48:54;;;;;;;;;;;;;;;23.01;16.30;101144.28;5031009;28;20007;-66
2021/10/09 13:51:20;;;;;;;;;;;;;;;22.87;16.56;101143.38;5049451;28;20014;-67
2021/10/09 13:53:46;;;;;;;;;;;;;;;22.86;16.68;101141.69;5050239;28;19920;-66
2021/10/09 13:56:12;;;;;;;;;;;;;;;22.95;16.76;101143.22;5021774;28;20016;-66
2021/10/09 13:58:38;;;;;;;;;;;;;;;22.90;16.63;101139.44;5046591;28;19999;-66
2021/10/09 14:01:03;;;;;;;;;;;;;;;22.86;16.73;101135.47;5041845;28;20381;-65
2021/10/09 14:03:32;;;;;;;;;;;;;;;22.89;16.81;101132.34;5043275;28;20573;-66
2021/10/09 14:05:58;;;;;;;;;;;;;;;22.82;16.63;101131.47;5046098;28;20491;-66
2021/10/09 14:08:25;;;;;;;;;;;;;;;22.61;16.99;101123.44;5012007;28;19924;-66
2021/10/09 14:10:51;;;;;;;;;;;;;;;22.61;17.49;101120.72;5048553;28;20052;-68
2021/10/09 14:13:16;;;;;;;;;;;;;;;22.60;17.01;101124.50;5029756;28;19943;-68
2021/10/09 14:15:42;;;;;;;;;;;;;;;22.37;17.00;101115.78;5012753;28;20386;-67
2021/10/09 14:18:07;;;;;;;;;;;;;;;22.38;16.91;101115.56;5045489;28;20378;-67
2021/10/09 14:20:33;;;;;;;;;;;;;;;22.29;17.00;101118.63;5023897;28;20412;-66
2021/10/09 14:23:01;;;;;;;;;;;;;;;22.24;17.19;101119.22;5030722;28;20417;-66
2021/10/09 14:25:31;;;;;;;;;;;;;;;22.20;17.26;101117.97;5049111;28;20038;-67
2021/10/09 14:27:58;;;;;;;;;;;;;;;22.10;17.50;101119.31;5047476;28;20007;-66
2021/10/09 14:30:23;;;;;;;;;;;;;;;22.09;17.68;101120.34;5030469;28;19924;-66
2021/10/09 14:32:49;;;;;;;;;;;;;;;22.10;17.54;101119.31;5046483;28;19927;-66
2021/10/09 14:35:14;;;;;;;;;;;;;;;21.99;17.71;101117.16;5047183;28;20011;-67
2021/10/09 14:37:40;;;;;;;;;;;;;;;21.97;17.68;101120.06;5029650;28;19927;-67
2021/10/09 14:40:06;;;;;;;;;;;;;;;21.85;17.67;101118.91;5031642;28;19924;-65
2021/10/09 14:42:31;;;;;;;;;;;;;;;21.82;17.84;101113.06;5049070;28;19925;-66
2021/10/09 14:44:57;;;;;;;;;;;;;;;21.61;17.98;101119.28;5032369;28;20483;-66
2021/10/09 14:47:42;;;;;;;;;;;;;;;21.59;18.18;101110.50;5049940;28;20309;-67
2021/10/09 14:53:07;;;;;;;;;;;;;;;21.33;18.50;101112.94;5047345;28;20023;-67
2021/10/09 15:19:42;;;;;;;;;;;;;;;20.57;19.54;101118.00;5049857;28;20310;-69
2021/10/09 15:22:08;;;;;;;;;;;;;;;20.56;19.42;101110.94;5048571;28;19946;-67
2021/10/09 15:24:34;;;;;;;;;;;;;;;20.50;19.63;101119.75;5014972;28;19920;-66
2021/10/09 15:27:00;;;;;;;;;;;;;;;20.47;19.60;101110.19;5047443;28;19966;-66